Time;durP1;ratioP1;P1;durP2;ratioP2;P2;SDS_P1;SDS_P2;PMS_P1;PMS_P2;Temp;Humidity;BMP_temperature;BMP_pressure;BME280_temperature;BME280_humidity;BME280_pressure;Samples;Min_cycle;Max_cycle;Signal;HPM_P1;HPM_P2
2021/09/08 00:00:10;;;;;;;4.83;2.90;;;;;;;19.88;40.82;102726.08;1702247;83;21473;-46
2021/09/08 00:02:40;;;;;;;6.25;2.92;;;;;;;19.92;40.76;102724.63;1703711;83;21077;-48
2021/09/08 00:05:08;;;;;;;4.60;3.08;;;;;;;19.97;40.23;102718.73;1705346;83;21030;-47
2021/09/08 00:07:35;;;;;;;6.00;3.85;;;;;;;20.01;39.80;102725.66;1703929;83;21041;-45
2021/09/08 00:10:05;;;;;;;6.87;3.90;;;;;;;20.07;39.37;102724.63;1708195;83;21053;-46
2021/09/08 00:12:34;;;;;;;;;;;;;;;20.10;38.89;102721.88;1671589;83;21538;-48
2021/09/08 00:15:03;;;;;;;5.40;3.87;;;;;;;20.15;38.75;102721.30;1673980;83;20134;-46
2021/09/08 00:17:29;;;;;;;4.62;3.95;;;;;;;20.19;38.47;102726.91;1669262;83;21046;-49
2021/09/08 00:19:58;;;;;;;4.72;3.45;;;;;;;20.23;38.12;102724.61;1672292;83;21059;-48
2021/09/08 00:22:27;;;;;;;6.10;3.08;;;;;;;20.25;37.46;102727.63;1676370;83;21508;-46
2021/09/08 00:24:55;;;;;;;5.47;2.92;;;;;;;20.30;37.15;102733.22;1673843;84;21064;-48
2021/09/08 00:27:22;;;;;;;4.15;2.80;;;;;;;20.32;36.79;102734.04;1680562;83;21002;-47
2021/09/08 00:29:49;;;;;;;3.90;2.00;;;;;;;20.35;36.48;102734.80;1702012;83;21021;-48
2021/09/08 00:32:16;;;;;;;2.98;1.90;;;;;;;20.37;36.46;102739.58;1677733;83;21538;-49
2021/09/08 00:34:44;;;;;;;5.03;2.40;;;;;;;20.40;36.70;102740.83;1689538;83;21067;-46
2021/09/08 00:37:12;;;;;;;6.78;2.05;;;;;;;20.42;36.59;102741.64;1673139;84;21042;-46
2021/09/08 00:39:40;;;;;;;3.40;2.00;;;;;;;20.46;36.30;102735.34;1675534;84;21013;-50
2021/09/08 00:42:15;;;;;;;3.45;2.20;;;;;;;20.48;35.91;102739.25;1673896;84;21573;-45
2021/09/08 00:44:43;;;;;;;3.50;2.12;;;;;;;20.50;35.81;102740.94;1665169;84;21035;-45
2021/09/08 00:47:14;;;;;;;3.98;1.72;;;;;;;20.52;35.55;102740.44;1666501;84;21063;-47
2021/09/08 00:49:42;;;;;;;3.42;2.20;;;;;;;20.53;35.66;102743.47;1666376;85;21034;-50
2021/09/08 00:52:12;;;;;;;4.33;2.22;;;;;;;20.55;35.96;102740.32;1676412;84;21094;-49
2021/09/08 00:54:39;;;;;;;3.58;1.80;;;;;;;20.57;36.08;102738.49;1619647;87;21066;-48
2021/09/08 00:57:08;;;;;;;5.30;2.20;;;;;;;20.59;35.76;102737.98;1611293;87;21099;-48
2021/09/08 00:59:37;;;;;;;4.58;2.50;;;;;;;20.59;35.69;102734.02;1576087;88;21077;-47
2021/09/08 01:02:06;;;;;;;4.33;1.90;;;;;;;20.60;35.86;102735.77;1597636;89;21180;-46
2021/09/08 01:04:34;;;;;;;3.45;1.90;;;;;;;20.62;35.96;102737.91;1590821;89;21137;-49
2021/09/08 01:07:06;;;;;;;3.27;2.00;;;;;;;20.63;36.19;102738.30;1582609;89;21613;-50
2021/09/08 01:09:34;;;;;;;3.53;1.83;;;;;;;20.63;36.04;102730.36;1558189;89;21113;-48
2021/09/08 01:12:03;;;;;;;5.45;1.70;;;;;;;20.64;35.83;102731.23;1558421;89;21058;-49
2021/09/08 01:14:32;;;;;;;3.40;1.80;;;;;;;20.63;35.78;102734.33;1610369;88;21165;-47
2021/09/08 01:17:00;;;;;;;6.70;3.15;;;;;;;20.65;35.75;102735.14;1570716;89;21103;-48
2021/09/08 01:19:27;;;;;;;7.08;2.80;;;;;;;20.63;35.68;102721.09;1585712;89;21671;-48
2021/09/08 01:21:54;;;;;;;3.98;2.17;;;;;;;20.64;35.38;102724.17;1594734;89;21050;-49
2021/09/08 01:24:22;;;;;;;8.50;2.15;;;;;;;20.64;35.32;102724.17;1608177;88;21498;-49
2021/09/08 01:26:49;;;;;;;2.98;1.82;;;;;;;20.63;35.49;102723.74;1598523;88;21098;-49
2021/09/08 01:29:16;;;;;;;2.92;1.70;;;;;;;20.64;35.49;102720.20;1599111;88;21573;-46
2021/09/08 01:31:54;;;;;;;6.10;2.25;;;;;;;20.64;35.38;102716.68;1575638;88;21602;-49
2021/09/08 01:34:23;;;;;;;5.87;2.30;;;;;;;20.63;35.58;102719.78;1609661;87;21557;-48
2021/09/08 01:36:50;;;;;;;3.80;2.00;;;;;;;20.63;35.05;102714.48;1619348;87;21051;-48
2021/09/08 01:39:18;;;;;;;3.98;1.85;;;;;;;20.63;34.42;102714.48;1616305;86;21047;-49
2021/09/08 01:41:47;;;;;;;2.83;1.90;;;;;;;20.63;33.97;102714.48;1623214;87;21058;-46
2021/09/08 01:44:22;;;;;;;2.65;1.90;;;;;;;20.65;33.76;102715.30;1623524;87;21053;-49
2021/09/08 01:46:51;;;;;;;2.55;1.82;;;;;;;20.64;33.63;102713.59;1571935;88;21131;-50
2021/09/08 01:49:18;;;;;;;4.17;2.45;;;;;;;20.64;33.60;102712.72;1581993;89;21059;-49
2021/09/08 01:51:45;;;;;;;2.95;2.10;;;;;;;20.64;33.25;102717.55;1594342;87;21066;-49
2021/09/08 01:54:12;;;;;;;2.90;2.02;;;;;;;20.65;33.29;102712.66;1656117;85;21086;-48
2021/09/08 01:56:39;;;;;;;3.92;2.45;;;;;;;20.65;33.50;102712.66;1646956;86;21591;-50
2021/09/08 01:59:06;;;;;;;2.72;1.95;;;;;;;20.66;33.74;102714.41;1651329;85;21058;-49
2021/09/08 02:01:33;;;;;;;3.72;2.15;;;;;;;20.68;34.20;102711.70;1640800;85;21001;-45
2021/09/08 02:04:00;;;;;;;5.85;1.90;;;;;;;20.68;34.58;102709.92;1640210;85;21043;-48
2021/09/08 02:06:28;;;;;;;5.90;2.30;;;;;;;20.67;34.66;102708.18;1648190;85;21090;-46
2021/09/08 02:08:57;;;;;;;3.45;2.30;;;;;;;20.69;34.42;102708.99;1636767;86;21097;-46
2021/09/08 02:11:25;;;;;;;4.83;2.58;;;;;;;20.69;34.30;102705.02;1644488;84;21739;-51
2021/09/08 02:13:54;;;;;;;3.02;1.90;;;;;;;20.69;34.33;102703.70;1645148;85;21110;-48
2021/09/08 02:16:22;;;;;;;2.90;1.72;;;;;;;20.71;33.86;102703.67;1639750;85;21058;-50
2021/09/08 02:18:51;;;;;;;6.53;1.85;;;;;;;20.72;33.82;102700.09;1651300;85;22605;-49
2021/09/08 02:21:18;;;;;;;3.40;1.70;;;;;;;20.72;33.84;102702.30;1669651;85;21093;-48
2021/09/08 02:23:45;;;;;;;3.98;1.60;;;;;;;20.72;33.85;102707.59;1653394;85;21038;-49
2021/09/08 02:26:14;;;;;;;5.85;1.70;;;;;;;20.73;33.82;102705.33;1660104;85;21151;-53
2021/09/08 02:28:40;;;;;;;3.12;1.80;;;;;;;20.72;33.82;102702.30;1638887;86;21191;-49
2021/09/08 02:31:07;;;;;;;2.52;1.85;;;;;;;20.72;33.83;102700.97;1651361;85;21169;-49
2021/09/08 02:33:34;;;;;;;3.15;1.87;;;;;;;20.75;34.02;102701.33;1640628;85;21050;-48
2021/09/08 02:36:02;;;;;;;3.85;1.80;;;;;;;20.76;33.89;102701.72;1645862;85;21103;-49
2021/09/08 02:38:30;;;;;;;4.97;1.60;;;;;;;20.76;34.01;102705.24;1646866;85;21029;-50
2021/09/08 02:41:00;;;;;;;4.70;2.00;;;;;;;20.76;34.29;102703.92;1637614;85;21058;-47
2021/09/08 02:43:29;;;;;;;5.60;1.90;;;;;;;20.77;34.58;102709.60;1608961;87;21168;-44
2021/09/08 02:46:01;;;;;;;3.37;1.72;;;;;;;20.77;34.81;102704.31;1595302;88;21613;-52
2021/09/08 02:48:26;;;;;;;4.10;2.10;;;;;;;20.77;34.97;102705.63;1602073;87;21554;-46
2021/09/08 02:50:55;;;;;;;4.20;2.27;;;;;;;20.77;34.92;102701.66;1662932;84;21110;-48
2021/09/08 02:53:22;;;;;;;4.47;2.02;;;;;;;20.78;34.93;102703.41;1671266;84;21106;-47
2021/09/08 02:55:48;;;;;;;4.22;2.05;;;;;;;20.77;35.03;102701.66;1661144;85;21023;-51
2021/09/08 02:58:15;;;;;;;3.55;1.90;;;;;;;20.78;35.23;102703.86;1664688;85;21099;-47
2021/09/08 03:00:42;;;;;;;2.87;1.92;;;;;;;20.78;35.23;102703.41;1674655;84;21069;-48
2021/09/08 03:03:09;;;;;;;3.10;1.87;;;;;;;20.79;35.39;102698.99;1663461;85;21046;-49
2021/09/08 03:05:36;;;;;;;2.47;1.50;;;;;;;20.79;35.64;102703.80;1658630;85;21551;-50
2021/09/08 03:08:04;;;;;;;3.25;1.60;;;;;;;20.79;35.67;102705.13;1670472;85;21526;-48
2021/09/08 03:10:33;;;;;;;6.50;2.55;;;;;;;20.78;35.45;102707.38;1676334;84;21054;-50
2021/09/08 03:13:01;;;;;;;2.45;2.00;;;;;;;20.78;35.37;102708.70;1668233;84;21057;-51
2021/09/08 03:15:28;;;;;;;3.22;1.98;;;;;;;20.79;35.47;102711.73;1678883;84;21578;-50
2021/09/08 03:17:55;;;;;;;4.15;2.58;;;;;;;20.78;35.56;102708.70;1666569;85;21051;-45
2021/09/08 03:20:21;;;;;;;3.27;1.95;;;;;;;20.77;35.60;102706.95;1655496;85;21131;-50
2021/09/08 03:22:49;;;;;;;4.50;1.85;;;;;;;20.77;35.54;102704.31;1668563;85;21101;-48
2021/09/08 03:25:16;;;;;;;3.35;1.75;;;;;;;20.76;35.59;102705.24;1675847;84;21097;-45
2021/09/08 03:27:42;;;;;;;2.67;1.70;;;;;;;20.76;35.75;102705.69;1686358;84;20990;-50
2021/09/08 03:30:12;;;;;;;8.18;2.05;;;;;;;20.73;35.99;102709.30;1672287;84;21097;-48
2021/09/08 03:32:38;;;;;;;7.75;2.05;;;;;;;20.73;36.21;102709.30;1668983;84;21090;-48
2021/09/08 03:35:06;;;;;;;4.70;1.62;;;;;;;20.74;36.59;102705.75;1663787;84;21542;-47
2021/09/08 03:37:34;;;;;;;4.97;2.20;;;;;;;20.75;36.92;102710.59;1662026;84;21056;-49
2021/09/08 03:40:01;;;;;;;4.15;2.40;;;;;;;20.77;37.34;102714.05;1678335;83;21537;-47
2021/09/08 03:42:28;;;;;;;6.17;1.92;;;;;;;20.76;37.44;102708.34;1703867;83;21010;-48
2021/09/08 03:44:54;;;;;;;3.00;1.95;;;;;;;20.76;37.52;102711.86;1705913;83;21493;-48
2021/09/08 03:47:21;;;;;;;3.67;2.42;;;;;;;20.78;37.38;102708.70;1703712;83;21072;-49
2021/09/08 03:49:47;;;;;;;2.95;2.10;;;;;;;20.80;37.05;102717.45;1703913;83;21545;-48
2021/09/08 03:52:17;;;;;;;3.45;1.87;;;;;;;20.81;36.96;102713.88;1703530;83;20990;-48
2021/09/08 03:54:44;;;;;;;8.35;3.12;;;;;;;20.79;37.07;102715.70;1705829;83;21053;-48
2021/09/08 03:57:10;;;;;;;10.48;3.75;;;;;;;20.80;37.59;102720.55;1705390;83;21494;-47
2021/09/08 03:59:39;;;;;;;7.22;4.55;;;;;;;20.80;40.56;102725.39;1711534;83;20969;-49
2021/09/08 04:02:05;;;;;;;10.13;4.28;;;;;;;20.80;41.71;102722.74;1705019;83;21505;-46
2021/09/08 04:04:33;;;;;;;12.23;4.97;;;;;;;20.79;42.28;102730.26;1709251;83;21001;-49
2021/09/08 04:07:03;;;;;;;6.67;3.85;;;;;;;20.76;42.76;102722.44;1701948;83;21045;-49
2021/09/08 04:09:32;;;;;;;7.83;4.28;;;;;;;20.74;42.61;102725.59;1707285;83;20977;-49
2021/09/08 04:11:58;;;;;;;7.95;4.40;;;;;;;20.72;42.87;102730.08;1708409;83;21528;-49
2021/09/08 04:14:25;;;;;;;7.10;3.77;;;;;;;20.70;42.93;102734.55;1705523;83;21061;-47
2021/09/08 04:16:52;;;;;;;8.00;4.17;;;;;;;20.69;43.10;102731.48;1698201;83;21541;-49
2021/09/08 04:19:20;;;;;;;6.78;4.05;;;;;;;20.69;42.92;102731.96;1706235;83;21013;-49
2021/09/08 04:21:46;;;;;;;5.58;4.20;;;;;;;20.68;43.17;102734.19;1702869;83;21084;-47
2021/09/08 04:24:13;;;;;;;7.92;4.00;;;;;;;20.66;43.38;102734.24;1700522;83;21553;-49
2021/09/08 04:26:40;;;;;;;8.50;4.03;;;;;;;20.67;43.73;102735.95;1704571;83;21061;-49
2021/09/08 04:29:08;;;;;;;9.05;4.78;;;;;;;20.68;44.03;102736.38;1706031;83;21053;-51
2021/09/08 04:31:34;;;;;;;6.92;4.12;;;;;;;20.67;44.30;102741.24;1704640;83;21017;-47
2021/09/08 04:34:06;;;;;;;12.43;4.42;;;;;;;20.65;44.43;102739.11;1702757;83;21013;-46
2021/09/08 04:36:30;;;;;;;23.62;4.72;;;;;;;20.64;44.46;102740.04;1699326;83;21324;-48
2021/09/08 04:38:57;;;;;;;7.40;4.67;;;;;;;20.66;44.26;102754.08;1701714;83;21033;-50
2021/09/08 04:41:25;;;;;;;7.12;4.42;;;;;;;20.64;43.92;102749.75;1691081;83;21068;-47
2021/09/08 04:43:52;;;;;;;6.78;3.90;;;;;;;20.64;43.83;102749.30;1702932;83;21045;-47
2021/09/08 04:46:19;;;;;;;10.85;4.47;;;;;;;20.61;43.82;102745.41;1700457;83;21049;-49
2021/09/08 04:48:46;;;;;;;9.60;4.12;;;;;;;20.61;43.76;102752.51;1701433;83;21002;-50
2021/09/08 04:51:15;;;;;;;6.65;4.42;;;;;;;20.58;43.75;102758.75;1699116;83;21057;-51
2021/09/08 04:53:42;;;;;;;8.15;4.15;;;;;;;20.58;43.76;102753.47;1642730;86;21149;-49
2021/09/08 04:56:09;;;;;;;9.10;4.58;;;;;;;20.57;43.86;102764.94;1645888;86;21088;-49
2021/09/08 04:58:35;;;;;;;9.33;5.35;;;;;;;20.56;43.71;102766.32;1663124;84;21027;-52
2021/09/08 05:01:02;;;;;;;12.05;5.17;;;;;;;20.56;44.06;102761.91;1659597;84;21026;-50
2021/09/08 05:03:28;;;;;;;11.43;5.05;;;;;;;20.56;44.32;102767.64;1631916;86;21519;-50
2021/09/08 05:05:56;;;;;;;7.35;4.65;;;;;;;20.55;44.33;102768.09;1662548;84;21035;-45
2021/09/08 05:08:22;;;;;;;10.53;4.90;;;;;;;20.55;44.17;102766.77;1652666;86;21562;-49
2021/09/08 05:10:49;;;;;;;8.68;5.12;;;;;;;20.54;44.41;102767.70;1639628;85;20998;-49
2021/09/08 05:13:15;;;;;;;8.03;4.87;;;;;;;20.54;44.36;102770.34;1652863;85;20999;-46
2021/09/08 05:15:42;;;;;;;10.25;5.20;;;;;;;20.53;44.40;102768.59;1653978;85;21082;-50
2021/09/08 05:18:11;;;;;;;10.30;5.33;;;;;;;20.53;44.51;102770.37;1693384;83;21125;-48
2021/09/08 05:20:38;;;;;;;8.85;5.45;;;;;;;20.52;44.52;102772.17;1707391;83;21071;-50
2021/09/08 05:23:05;;;;;;;12.65;5.25;;;;;;;20.52;44.58;102770.85;1708089;83;21053;-46
2021/09/08 05:25:32;;;;;;;12.85;5.55;;;;;;;20.52;44.68;102768.20;1710357;83;21033;-50
2021/09/08 05:27:59;;;;;;;10.10;5.05;;;;;;;20.51;44.74;102771.75;1706762;83;21568;-49
2021/09/08 05:30:25;;;;;;;11.95;5.70;;;;;;;20.51;44.72;102767.78;1706470;83;21021;-45
2021/09/08 05:32:52;;;;;;;7.22;4.75;;;;;;;20.53;44.72;102773.02;1704118;83;21096;-50
2021/09/08 05:35:19;;;;;;;12.55;5.67;;;;;;;20.52;44.73;102773.50;1705479;83;21017;-52
2021/09/08 05:37:47;;;;;;;12.93;5.28;;;;;;;20.53;44.76;102771.24;1701928;83;21029;-47
2021/09/08 05:40:13;;;;;;;9.58;5.62;;;;;;;20.53;44.75;102775.66;1703024;83;22698;-49
2021/09/08 05:42:40;;;;;;;8.28;5.60;;;;;;;20.52;44.52;102768.66;1693711;83;21541;-47
2021/09/08 05:45:09;;;;;;;12.28;5.00;;;;;;;20.50;44.54;102771.36;1706573;83;21023;-50
2021/09/08 05:47:36;;;;;;;9.90;5.12;;;;;;;20.47;44.60;102771.44;1708030;83;21052;-51
2021/09/08 05:50:04;;;;;;;12.85;6.00;;;;;;;20.47;44.86;102766.14;1701897;83;21073;-49
2021/09/08 05:52:30;;;;;;;45.17;8.05;;;;;;;20.49;45.10;102773.58;1692666;83;21060;-46
2021/09/08 05:54:57;;;;;;;10.48;5.65;;;;;;;20.52;45.17;102766.88;1704517;83;21010;-50
2021/09/08 05:57:24;;;;;;;13.08;4.92;;;;;;;20.56;45.46;102769.84;1692573;83;21016;-46
2021/09/08 05:59:51;;;;;;;8.75;5.30;;;;;;;20.66;45.40;102767.76;1694350;83;21509;-46
2021/09/08 06:02:18;;;;;;;8.60;4.72;;;;;;;20.84;45.10;102772.00;1682923;83;20998;-48
2021/09/08 06:04:46;;;;;;;8.95;4.97;;;;;;;21.05;44.88;102772.66;1701779;83;21045;-48
2021/09/08 06:07:13;;;;;;;8.10;5.12;;;;;;;21.30;44.67;102773.14;1706387;83;21453;-48
2021/09/08 06:09:40;;;;;;;8.58;5.12;;;;;;;21.59;43.91;102775.64;1706081;83;21088;-47
2021/09/08 06:12:08;;;;;;;9.38;5.70;;;;;;;21.84;43.33;102781.34;1708772;83;21045;-50
2021/09/08 06:14:35;;;;;;;7.92;5.47;;;;;;;21.96;43.64;102770.77;1708737;83;21061;-49
2021/09/08 06:17:03;;;;;;;8.48;5.03;;;;;;;22.01;44.04;102771.45;1705315;83;21506;-50
2021/09/08 06:19:31;;;;;;;10.45;5.50;;;;;;;22.02;44.16;102770.53;1694599;83;21053;-46
2021/09/08 06:21:57;;;;;;;12.18;5.50;;;;;;;22.00;43.68;102772.38;1705957;83;21545;-51
2021/09/08 06:24:26;;;;;;;12.43;5.17;;;;;;;21.98;43.55;102768.92;1704323;83;21063;-50
2021/09/08 06:26:53;;;;;;;10.32;5.00;;;;;;;22.03;43.60;102769.59;1693338;83;21116;-50
2021/09/08 06:29:20;;;;;;;7.67;5.12;;;;;;;22.12;43.63;102771.91;1715751;83;21072;-50
2021/09/08 06:31:46;;;;;;;8.83;5.12;;;;;;;22.23;43.42;102769.73;1707381;83;21017;-46
2021/09/08 06:34:13;;;;;;;9.75;5.53;;;;;;;22.31;43.29;102772.95;1696888;83;21509;-50
2021/09/08 06:36:40;;;;;;;10.43;4.72;;;;;;;22.32;43.00;102773.78;1707105;83;21030;-50
2021/09/08 06:39:07;;;;;;;10.50;5.05;;;;;;;22.31;43.11;102771.63;1706350;83;21004;-51
2021/09/08 06:41:34;;;;;;;8.13;5.22;;;;;;;22.31;43.37;102772.95;1702097;83;21074;-47
2021/09/08 06:44:01;;;;;;;13.78;5.28;;;;;;;22.28;43.76;102775.70;1715133;83;20998;-48
2021/09/08 06:46:28;;;;;;;8.65;5.15;;;;;;;22.28;43.97;102778.36;1698569;83;21033;-49
2021/09/08 06:48:56;;;;;;;14.40;5.80;;;;;;;22.27;44.23;102773.99;1713448;83;21034;-50
2021/09/08 06:51:23;;;;;;;8.28;5.05;;;;;;;22.28;44.51;102769.53;1705707;83;21018;-48
2021/09/08 06:53:50;;;;;;;7.58;4.67;;;;;;;22.26;44.65;102766.94;1706411;83;21014;-51
2021/09/08 06:56:16;;;;;;;11.95;5.15;;;;;;;22.28;44.38;102767.75;1706938;82;20990;-49
2021/09/08 06:58:43;;;;;;;10.10;5.10;;;;;;;22.30;44.28;102768.55;1705214;83;21069;-50
2021/09/08 07:01:10;;;;;;;11.45;4.03;;;;;;;22.30;44.40;102772.98;1707602;83;21643;-50
2021/09/08 07:03:36;;;;;;;6.58;3.77;;;;;;;22.33;43.91;102773.75;1705593;83;20994;-49
2021/09/08 07:06:04;;;;;;;7.55;3.67;;;;;;;22.39;43.01;102766.88;1705865;83;21533;-49
2021/09/08 07:08:31;;;;;;;4.17;2.83;;;;;;;22.45;41.96;102767.09;1707188;83;21136;-47
2021/09/08 07:10:57;;;;;;;5.55;2.95;;;;;;;22.52;41.75;102769.43;1700146;83;21592;-49
2021/09/08 07:13:25;;;;;;;7.70;3.22;;;;;;;22.60;41.25;102768.73;1704257;83;21002;-49
2021/09/08 07:15:51;;;;;;;11.57;3.58;;;;;;;22.70;41.18;102770.53;1703426;83;20978;-46
2021/09/08 07:18:18;;;;;;;4.90;3.22;;;;;;;22.79;41.11;102774.61;1704144;83;21076;-49
2021/09/08 07:20:47;;;;;;;5.70;3.30;;;;;;;22.88;41.20;102776.88;1695260;83;21120;-50
2021/09/08 07:23:13;;;;;;;5.97;2.83;;;;;;;22.98;41.18;102779.58;1706760;82;20998;-50
2021/09/08 07:25:40;;;;;;;5.97;3.15;;;;;;;23.11;40.37;102783.42;1713208;83;21565;-49
2021/09/08 07:28:07;;;;;;;5.15;3.20;;;;;;;23.26;39.63;102778.80;1710632;83;21018;-50
2021/09/08 07:30:33;;;;;;;5.33;3.27;;;;;;;23.41;39.37;102786.16;1707091;83;21022;-48
2021/09/08 07:33:00;;;;;;;8.20;3.20;;;;;;;23.52;39.21;102779.02;1701489;83;21653;-46
2021/09/08 07:35:27;;;;;;;8.80;5.67;;;;;;;23.59;39.11;102776.51;1703636;83;21482;-51
2021/09/08 07:37:57;;;;;;;6.00;3.10;;;;;;;23.63;38.92;102781.63;1703021;83;21026;-47
2021/09/08 07:40:24;;;;;;;6.08;3.47;;;;;;;23.66;38.64;102777.98;1705403;83;21022;-46
2021/09/08 07:42:51;;;;;;;5.80;3.83;;;;;;;23.67;38.34;102785.00;1705143;83;21093;-46
2021/09/08 07:45:18;;;;;;;6.95;3.30;;;;;;;23.65;37.94;102784.20;1677708;84;21033;-48
2021/09/08 07:47:45;;;;;;;4.62;3.47;;;;;;;23.62;37.92;102779.05;1704123;83;21001;-49
2021/09/08 07:50:12;;;;;;;7.62;3.20;;;;;;;23.58;37.58;102787.59;1713407;83;21072;-50
2021/09/08 07:52:39;;;;;;;5.08;2.83;;;;;;;23.57;37.67;102783.69;1710655;83;21033;-48
2021/09/08 07:55:07;;;;;;;8.08;3.72;;;;;;;23.57;37.53;102789.00;1709705;83;21041;-49
2021/09/08 07:57:34;;;;;;;8.08;4.00;;;;;;;23.57;37.44;102784.56;1697763;83;21096;-47
2021/09/08 08:00:00;;;;;;;9.00;4.62;;;;;;;23.59;37.50;102781.36;1700418;83;20998;-49
2021/09/08 08:02:28;;;;;;;59.55;8.08;;;;;;;23.61;37.51;102783.48;1702351;83;21478;-47
2021/09/08 08:04:54;;;;;;;18.80;10.50;;;;;;;23.65;37.60;102785.08;1700859;83;21749;-47
2021/09/08 08:07:21;;;;;;;9.50;5.83;;;;;;;23.69;37.39;102786.67;1705701;83;21101;-47
2021/09/08 08:09:48;;;;;;;6.53;4.35;;;;;;;23.72;37.10;102786.52;1705840;83;21098;-49
2021/09/08 08:12:15;;;;;;;5.75;3.20;;;;;;;23.75;37.37;102783.73;1702982;83;21545;-48
2021/09/08 08:14:42;;;;;;;7.08;3.45;;;;;;;23.80;37.43;102788.36;1706097;83;21030;-50
2021/09/08 08:17:10;;;;;;;4.03;3.27;;;;;;;23.82;37.45;102787.83;1699076;83;21730;-51
2021/09/08 08:19:36;;;;;;;8.63;3.50;;;;;;;23.86;37.38;102785.92;1704963;83;21022;-48
2021/09/08 08:22:03;;;;;;;8.75;4.00;;;;;;;23.88;37.33;102790.24;1710392;83;21108;-50
2021/09/08 08:24:30;;;;;;;12.75;6.05;;;;;;;23.91;37.09;102786.09;1710440;82;21148;-50
2021/09/08 08:27:00;;;;;;;6.22;3.95;;;;;;;23.95;36.90;102789.02;1702973;83;21049;-47
2021/09/08 08:29:25;;;;;;;9.28;4.25;;;;;;;23.97;36.61;102788.47;1697075;83;21020;-49
2021/09/08 08:31:52;;;;;;;4.83;3.85;;;;;;;24.00;36.46;102789.68;1706036;83;21037;-48
2021/09/08 08:34:18;;;;;;;5.60;3.87;;;;;;;24.01;36.59;102786.07;1705234;83;21005;-48
2021/09/08 08:36:45;;;;;;;5.55;3.37;;;;;;;24.03;36.24;102784.23;1706054;83;21084;-49
2021/09/08 08:39:11;;;;;;;7.10;3.77;;;;;;;24.06;36.72;102775.27;1716065;83;21498;-46
2021/09/08 08:41:39;;;;;;;9.65;3.65;;;;;;;24.06;36.55;102776.13;1705110;83;21029;-50
2021/09/08 08:44:06;;;;;;;4.65;3.42;;;;;;;24.06;36.23;102769.48;1708070;83;21034;-51
2021/09/08 08:46:33;;;;;;;20.15;6.53;;;;;;;24.06;36.31;102770.81;1691248;83;21057;-51
2021/09/08 08:49:00;;;;;;;6.83;4.75;;;;;;;24.08;36.63;102775.59;1700549;83;21054;-50
2021/09/08 08:51:27;;;;;;;6.00;4.28;;;;;;;24.10;36.64;102772.39;1704252;83;21561;-50
2021/09/08 08:53:56;;;;;;;7.87;4.12;;;;;;;24.14;36.01;102773.98;1700626;83;21077;-50
2021/09/08 08:56:24;;;;;;;6.47;4.55;;;;;;;24.17;35.89;102772.48;1705034;83;21548;-50
2021/09/08 08:58:52;;;;;;;6.40;3.72;;;;;;;24.20;36.14;102768.37;1707829;83;21033;-48
2021/09/08 09:01:24;;;;;;;5.17;4.10;;;;;;;24.22;35.65;102762.97;1705647;83;21046;-47
2021/09/08 09:04:08;;;;;;;7.20;3.60;;;;;;;24.26;35.98;102764.55;1694246;83;21043;-48
2021/09/08 09:06:41;;;;;;;6.55;3.08;;;;;;;24.30;36.25;102761.30;1699151;83;21017;-46
2021/09/08 09:09:16;;;;;;;5.30;3.10;;;;;;;24.33;35.65;102757.14;1686411;83;21013;-45
2021/09/08 09:11:48;;;;;;;4.78;3.42;;;;;;;24.33;35.68;102759.80;1654881;85;21054;-48
2021/09/08 09:14:15;;;;;;;6.15;3.80;;;;;;;24.35;35.76;102759.27;1658178;85;21027;-47
2021/09/08 09:16:44;;;;;;;4.83;3.67;;;;;;;24.38;36.72;102760.46;1659109;85;21063;-50
2021/09/08 09:19:12;;;;;;;9.05;3.30;;;;;;;24.40;37.22;102753.27;1646249;85;21538;-47
2021/09/08 09:21:39;;;;;;;11.50;3.60;;;;;;;24.45;36.95;102752.56;1653294;85;21041;-49
2021/09/08 09:24:07;;;;;;;6.20;3.50;;;;;;;24.49;36.87;102759.00;1653566;86;21101;-45
2021/09/08 09:26:38;;;;;;;5.03;3.10;;;;;;;24.52;36.70;102756.66;1665670;85;21074;-48
2021/09/08 09:29:18;;;;;;;7.30;3.47;;;;;;;24.52;36.64;102752.67;1595231;87;21047;-50
2021/09/08 09:31:56;;;;;;;7.28;3.55;;;;;;;24.55;36.88;102749.38;1548237;90;21054;-49
2021/09/08 09:34:29;;;;;;;5.47;3.47;;;;;;;24.58;36.62;102747.05;1509010;93;21073;-46
2021/09/08 09:36:59;;;;;;;5.67;3.50;;;;;;;24.54;36.26;102752.13;1539082;92;21070;-47
2021/09/08 09:39:32;;;;;;;4.55;3.33;;;;;;;24.54;36.26;102752.13;1537597;92;21089;-46
2021/09/08 09:42:08;;;;;;;3.85;3.20;;;;;;;24.61;36.42;102750.88;1541653;91;21561;-48
2021/09/08 09:44:35;;;;;;;5.78;3.05;;;;;;;24.64;35.64;102754.73;1543597;92;21114;-49
2021/09/08 09:47:02;;;;;;;6.33;3.72;;;;;;;24.65;35.22;102750.66;1532522;92;21601;-46
2021/09/08 09:49:35;;;;;;;3.50;3.20;;;;;;;24.69;35.19;102754.05;1535551;92;21110;-48
2021/09/08 09:52:06;;;;;;;7.12;4.28;;;;;;;24.72;34.62;102747.23;1540639;92;21064;-46
2021/09/08 09:54:33;;;;;;;4.10;3.33;;;;;;;24.77;34.76;102746.58;1538116;91;21121;-47
2021/09/08 09:57:00;;;;;;;4.15;2.80;;;;;;;24.80;35.20;102745.08;1535272;90;21070;-49
2021/09/08 09:59:27;;;;;;;3.72;2.70;;;;;;;24.84;35.30;102743.98;1543867;90;21878;-49
2021/09/08 10:01:54;;;;;;;3.15;2.80;;;;;;;24.85;34.70;102742.57;1528200;92;21600;-49
2021/09/08 10:04:21;;;;;;;6.42;2.55;;;;;;;24.88;34.74;102736.23;1533028;92;21072;-46
2021/09/08 10:06:49;;;;;;;3.67;2.50;;;;;;;24.90;33.48;102741.02;1542034;91;21584;-49
2021/09/08 10:09:18;;;;;;;4.72;2.72;;;;;;;24.91;33.19;102742.75;1561236;90;21562;-49
2021/09/08 10:11:47;;;;;;;4.28;2.95;;;;;;;24.93;33.83;102743.54;1590417;88;22648;-50
2021/09/08 10:14:18;;;;;;;4.72;2.20;;;;;;;24.94;33.58;102738.59;1579687;89;21885;-49
2021/09/08 10:16:46;;;;;;;4.85;2.30;;;;;;;24.95;33.13;102741.66;1589901;89;21084;-48
2021/09/08 10:19:25;;;;;;;5.15;2.85;;;;;;;24.88;33.49;102738.44;1588695;88;21571;-47
2021/09/08 10:21:56;;;;;;;6.87;2.37;;;;;;;24.79;33.55;102741.55;1575149;88;21101;-50
2021/09/08 10:24:24;;;;;;;4.08;2.77;;;;;;;24.82;33.17;102743.20;1572890;89;21550;-48
2021/09/08 10:26:51;;;;;;;5.05;2.50;;;;;;;24.82;33.17;102743.20;1615848;87;21152;-49
2021/09/08 10:29:24;;;;;;;6.35;2.72;;;;;;;24.83;32.95;102740.95;1651096;85;21082;-46
2021/09/08 10:31:51;;;;;;;5.62;2.10;;;;;;;24.86;31.76;102739.45;1618765;87;21053;-49
2021/09/08 10:34:20;;;;;;;3.30;2.20;;;;;;;25.05;31.36;102741.58;1572138;88;21110;-53
2021/09/08 10:36:47;;;;;;;5.72;2.72;;;;;;;25.13;30.82;102731.86;1546730;91;21086;-45
2021/09/08 10:39:16;;;;;;;3.85;2.67;;;;;;;25.15;31.38;102732.64;1622539;87;21600;-49
2021/09/08 10:41:48;;;;;;;3.83;2.60;;;;;;;25.18;31.27;102726.70;1621204;87;21014;-47
2021/09/08 10:44:18;;;;;;;3.17;2.17;;;;;;;25.18;31.27;102726.70;1605686;88;21696;-47
2021/09/08 10:46:59;;;;;;;3.10;1.90;;;;;;;25.21;30.46;102726.53;1629979;87;21057;-46
2021/09/08 10:49:45;;;;;;;7.75;2.12;;;;;;;25.23;29.94;102722.44;1626808;88;21050;-49
2021/09/08 10:52:37;;;;;;;7.50;2.65;;;;;;;25.24;29.56;102714.39;1621677;87;21041;-49
2021/09/08 10:55:12;;;;;;;5.37;2.50;;;;;;;25.24;29.56;102714.39;1539386;91;21154;-49
2021/09/08 10:57:52;;;;;;;4.25;2.50;;;;;;;25.27;30.06;102715.55;1556599;91;21105;-46
2021/09/08 11:00:27;;;;;;;3.02;2.17;;;;;;;25.32;29.68;102708.19;1566590;91;21499;-50
2021/09/08 11:02:54;;;;;;;3.55;1.90;;;;;;;25.37;29.18;102708.79;1565944;90;21745;-45
2021/09/08 11:05:21;;;;;;;3.05;2.27;;;;;;;25.39;28.68;102705.57;1566838;90;21050;-51
2021/09/08 11:07:49;;;;;;;3.22;2.37;;;;;;;25.44;29.14;102708.91;1558939;91;21019;-50
2021/09/08 11:10:30;;;;;;;3.55;2.52;;;;;;;25.47;29.21;102702.55;1558827;90;21062;-46
2021/09/08 11:13:00;;;;;;;3.02;1.95;;;;;;;25.49;28.91;102701.50;1580384;90;21566;-48
2021/09/08 11:15:36;;;;;;;3.05;1.80;;;;;;;25.51;28.46;102698.28;1569533;90;21309;-49
2021/09/08 11:18:07;;;;;;;4.70;2.22;;;;;;;25.54;28.12;102699.47;1580045;90;21586;-48
2021/09/08 11:20:37;;;;;;;2.92;2.00;;;;;;;25.56;28.65;102705.58;1573792;90;21079;-48
2021/09/08 11:23:08;;;;;;;3.05;2.00;;;;;;;25.58;28.29;102693.03;1568528;90;21144;-49
2021/09/08 11:25:39;;;;;;;4.58;2.10;;;;;;;25.61;28.39;102692.88;1558448;91;21045;-48
2021/09/08 11:28:09;;;;;;;4.90;1.85;;;;;;;25.65;29.03;102687.77;1534251;91;21145;-49